createdAt,value
2017-09-08T00:00:19.496Z,100220.67
2017-09-08T00:01:26.082Z,100213.66
2017-09-08T00:02:33.086Z,100209.38
2017-09-08T00:03:40.062Z,100211.56
2017-09-08T00:04:46.167Z,100199.98
2017-09-08T00:05:52.927Z,100196.10
2017-09-08T00:06:59.989Z,100203.20
2017-09-08T00:08:06.161Z,100198.69
2017-09-08T00:09:12.210Z,100198.08
2017-09-08T00:10:19.026Z,100199.22
2017-09-08T00:11:25.922Z,100195.23
2017-09-08T00:12:32.120Z,100198.72
2017-09-08T00:13:38.562Z,100189.59
2017-09-08T00:14:44.669Z,100192.05
2017-09-08T00:15:51.105Z,100192.73
2017-09-08T00:16:58.521Z,100185.28
2017-09-08T00:18:04.327Z,100182.94
2017-09-08T00:19:10.423Z,100185.57
2017-09-08T00:20:16.575Z,100184.66
2017-09-08T00:21:22.487Z,100181.44
2017-09-08T00:22:28.614Z,100186.59
2017-09-08T00:23:34.851Z,100183.69
2017-09-08T00:24:40.931Z,100175.66
2017-09-08T00:25:47.303Z,100182.36
2017-09-08T00:26:53.474Z,100180.73
2017-09-08T00:28:00.434Z,100184.99
2017-09-08T00:29:06.618Z,100181.50
2017-09-08T00:30:12.801Z,100182.62
2017-09-08T00:31:19.512Z,100181.97
2017-09-08T00:32:25.389Z,100175.44
2017-09-08T00:33:32.298Z,100178.14
2017-09-08T00:34:38.479Z,100176.59
2017-09-08T00:35:44.742Z,100178.98
2017-09-08T00:36:50.946Z,100182.54
2017-09-08T00:37:57.212Z,100173.59
2017-09-08T00:39:03.290Z,100171.28
2017-09-08T00:40:09.942Z,100172.58
2017-09-08T00:41:16.713Z,100169.77
2017-09-08T00:42:23.410Z,100170.14
2017-09-08T00:43:29.739Z,100170.16
2017-09-08T00:44:35.548Z,100167.91
2017-09-08T00:45:41.617Z,100170.34
2017-09-08T00:46:47.814Z,100169.75
2017-09-08T00:47:54.043Z,100163.16
2017-09-08T00:48:59.952Z,100165.41
2017-09-08T00:50:05.835Z,100163.47
2017-09-08T00:51:11.087Z,100163.02
2017-09-08T00:52:17.243Z,100163.13
2017-09-08T00:53:23.053Z,100166.98
2017-09-08T00:54:29.566Z,100161.09
2017-09-08T00:55:35.338Z,100164.50
2017-09-08T00:56:41.293Z,100160.27
2017-09-08T00:57:47.120Z,100156.31
2017-09-08T00:58:52.669Z,100144.56
2017-09-08T00:59:58.819Z,100150.08
2017-09-08T01:01:04.908Z,100149.64
2017-09-08T01:02:11.196Z,100148.81
2017-09-08T01:03:18.161Z,100139.75
2017-09-08T01:04:24.375Z,100136.03
2017-09-08T01:05:30.465Z,100132.79
2017-09-08T01:06:36.284Z,100135.86
2017-09-08T01:07:42.376Z,100136.23
2017-09-08T01:08:49.834Z,100130.64
2017-09-08T01:09:56.033Z,100134.38
2017-09-08T01:11:01.892Z,100129.14
2017-09-08T01:12:07.989Z,100123.64
2017-09-08T01:13:13.358Z,100132.63
2017-09-08T01:14:19.200Z,100121.00
2017-09-08T01:15:24.475Z,100122.75
2017-09-08T01:16:30.193Z,100120.44
2017-09-08T01:17:36.953Z,100123.23
2017-09-08T01:18:43.013Z,100120.52
2017-09-08T01:19:49.255Z,100126.02
2017-09-08T01:20:55.416Z,100126.84
2017-09-08T01:22:01.728Z,100123.74
2017-09-08T01:23:08.223Z,100121.11
2017-09-08T01:24:14.373Z,100118.94
2017-09-08T01:25:20.606Z,100116.95
2017-09-08T01:26:26.800Z,100115.09
2017-09-08T01:27:32.890Z,100114.03
2017-09-08T01:28:39.289Z,100114.12
2017-09-08T01:29:45.356Z,100107.05
2017-09-08T01:30:51.090Z,100107.29
2017-09-08T01:31:57.301Z,100109.19
2017-09-08T01:33:03.554Z,100104.45
2017-09-08T01:34:09.730Z,100107.27
2017-09-08T01:35:15.672Z,100105.41
2017-09-08T01:36:21.806Z,100104.47
2017-09-08T01:37:28.892Z,100103.54
2017-09-08T01:38:34.947Z,100106.95
2017-09-08T01:39:41.135Z,100110.23
2017-09-08T01:40:47.318Z,100108.37
2017-09-08T01:41:53.604Z,100108.34
2017-09-08T01:42:59.964Z,100109.50
2017-09-08T01:44:06.206Z,100109.14
2017-09-08T01:45:12.337Z,100108.75
2017-09-08T01:46:19.103Z,100109.67
2017-09-08T01:47:25.163Z,100111.46
2017-09-08T01:48:31.357Z,100111.77
2017-09-08T01:49:38.420Z,100112.80
2017-09-08T01:50:44.715Z,100112.61
2017-09-08T01:51:50.833Z,100110.62
2017-09-08T01:52:56.805Z,100102.75
2017-09-08T01:54:02.904Z,100105.98
2017-09-08T01:55:09.121Z,100102.48
2017-09-08T01:56:15.347Z,100099.72
2017-09-08T01:57:22.146Z,100101.64
2017-09-08T01:58:28.108Z,100098.22
2017-09-08T01:59:35.126Z,100097.16
2017-09-08T02:00:41.001Z,100092.84
2017-09-08T02:01:46.997Z,100095.05
2017-09-08T02:02:54.225Z,100092.76
2017-09-08T02:04:00.372Z,100091.05
2017-09-08T02:05:06.514Z,100091.86
2017-09-08T02:06:14.973Z,100087.00
2017-09-08T02:07:21.879Z,100086.56
2017-09-08T02:08:28.374Z,100088.61
2017-09-08T02:09:34.558Z,100091.52
2017-09-08T02:10:40.639Z,100081.34
2017-09-08T02:11:47.409Z,100080.71
2017-09-08T02:12:53.534Z,100078.97
2017-09-08T02:13:59.385Z,100080.75
2017-09-08T02:15:05.545Z,100077.73
2017-09-08T02:16:11.728Z,100080.02
2017-09-08T02:17:17.913Z,100073.82
2017-09-08T02:18:24.022Z,100081.36
2017-09-08T02:19:30.156Z,100078.70
2017-09-08T02:20:36.223Z,100073.17
2017-09-08T02:21:47.677Z,100078.44
2017-09-08T02:22:53.826Z,100079.21
2017-09-08T02:24:00.532Z,100077.23
2017-09-08T02:25:06.373Z,100079.61
2017-09-08T02:26:12.198Z,100080.33
2017-09-08T02:27:18.074Z,100079.81
2017-09-08T02:28:24.281Z,100080.48
2017-09-08T02:29:30.391Z,100072.98
2017-09-08T02:30:36.511Z,100071.52
2017-09-08T02:31:43.339Z,100076.57
2017-09-08T02:32:49.705Z,100072.75
2017-09-08T02:33:56.772Z,100076.80
2017-09-08T02:35:02.793Z,100075.95
2017-09-08T02:36:09.000Z,100077.58
2017-09-08T02:37:15.286Z,100070.34
2017-09-08T02:38:21.506Z,100068.77
2017-09-08T02:39:28.452Z,100073.44
2017-09-08T02:40:35.547Z,100072.38
2017-09-08T02:41:42.585Z,100075.79
2017-09-08T02:42:48.743Z,100072.92
2017-09-08T02:43:54.957Z,100071.37
2017-09-08T02:45:01.272Z,100071.02
2017-09-08T02:46:07.681Z,100072.59
2017-09-08T02:47:13.814Z,100068.58
2017-09-08T02:48:19.987Z,100073.08
2017-09-08T02:49:25.857Z,100065.88
2017-09-08T02:50:32.852Z,100066.19
2017-09-08T02:51:39.024Z,100058.64
2017-09-08T02:52:45.279Z,100058.23
2017-09-08T02:53:51.437Z,100057.77
2017-09-08T02:54:57.661Z,100062.32
2017-09-08T02:56:03.633Z,100065.18
2017-09-08T02:57:09.619Z,100061.51
2017-09-08T02:58:15.811Z,100060.82
2017-09-08T02:59:21.935Z,100064.40
2017-09-08T03:00:28.178Z,100065.98
2017-09-08T03:01:34.136Z,100062.66
2017-09-08T03:02:40.279Z,100062.61
2017-09-08T03:03:46.545Z,100058.27
2017-09-08T03:04:52.697Z,100055.74
2017-09-08T03:05:58.881Z,100047.97
2017-09-08T03:07:04.801Z,100054.27
2017-09-08T03:08:10.979Z,100051.56
2017-09-08T03:09:17.132Z,100045.09
2017-09-08T03:10:23.315Z,100050.23
2017-09-08T03:11:29.518Z,100042.36
2017-09-08T03:12:35.667Z,100043.48
2017-09-08T03:13:41.790Z,100037.56
2017-09-08T03:14:47.955Z,100036.45
2017-09-08T03:15:54.159Z,100039.29
2017-09-08T03:17:00.361Z,100041.51
2017-09-08T03:18:06.479Z,100040.27
2017-09-08T03:19:12.602Z,100038.20
2017-09-08T03:20:18.738Z,100037.31
2017-09-08T03:21:24.868Z,100036.23
2017-09-08T03:22:31.041Z,100038.88
2017-09-08T03:23:37.032Z,100040.88
2017-09-08T03:24:43.326Z,100036.59
2017-09-08T03:25:49.516Z,100036.52
2017-09-08T03:26:55.698Z,100034.89
2017-09-08T03:28:01.845Z,100035.09
2017-09-08T03:29:07.760Z,100028.39
2017-09-08T03:30:14.096Z,100023.62
2017-09-08T03:31:20.256Z,100022.88
2017-09-08T03:32:26.454Z,100024.84
2017-09-08T03:33:32.533Z,100018.38
2017-09-08T03:34:38.416Z,100021.19
2017-09-08T03:35:44.532Z,100019.35
2017-09-08T03:36:50.745Z,100013.15
2017-09-08T03:37:56.953Z,100018.47
2017-09-08T03:39:02.951Z,100019.50
2017-09-08T03:40:09.144Z,100019.27
2017-09-08T03:41:15.373Z,100020.19
2017-09-08T03:42:21.527Z,100022.89
2017-09-08T03:43:27.637Z,100021.09
2017-09-08T03:44:33.777Z,100015.40
2017-09-08T03:45:39.901Z,100015.92
2017-09-08T03:46:46.011Z,100012.63
2017-09-08T03:47:52.140Z,100004.24
2017-09-08T03:48:58.276Z,100004.24
2017-09-08T03:50:04.484Z,100008.70
2017-09-08T03:51:11.026Z,100012.09
2017-09-08T03:52:17.849Z,100010.21
2017-09-08T03:56:48.395Z,99997.41
2017-09-08T03:58:01.891Z,99987.33
2017-09-08T03:59:18.506Z,99982.39
2017-09-08T04:00:33.081Z,99982.77
2017-09-08T04:01:39.260Z,99974.79
2017-09-08T04:02:46.083Z,99978.11
2017-09-08T04:03:53.103Z,99973.41
2017-09-08T04:04:59.436Z,99977.87
2017-09-08T04:06:07.328Z,99972.73
2017-09-08T04:07:15.831Z,99970.71
2017-09-08T04:08:23.109Z,99968.45
2017-09-08T04:09:31.371Z,99970.08
2017-09-08T04:10:40.395Z,99966.65
2017-09-08T04:11:53.544Z,99964.23
2017-09-08T04:13:05.308Z,99963.44
2017-09-08T04:14:19.602Z,99964.08
2017-09-08T04:15:36.866Z,99957.88
2017-09-08T04:17:04.605Z,99957.30
2017-09-08T04:18:32.818Z,99958.13
2017-09-08T04:19:47.493Z,99954.36
2017-09-08T04:21:09.069Z,99963.21
2017-09-08T04:22:23.495Z,99964.13
2017-09-08T04:23:33.386Z,99965.45
2017-09-08T04:26:41.404Z,99961.18
2017-09-08T04:27:50.459Z,99961.02
2017-09-08T04:29:18.849Z,99966.75
2017-09-08T04:34:10.280Z,99962.34
2017-09-08T04:35:20.738Z,99960.80
2017-09-08T04:36:34.493Z,99960.11
2017-09-08T04:37:44.578Z,99970.31
2017-09-08T04:40:59.536Z,99961.95
2017-09-08T04:42:24.402Z,99960.97
2017-09-08T04:43:42.298Z,99957.77
2017-09-08T04:45:20.275Z,99952.69
2017-09-08T04:46:34.320Z,99948.73
2017-09-08T04:49:38.422Z,99931.94
2017-09-08T04:51:02.478Z,99934.66
2017-09-08T04:52:12.728Z,99934.56
2017-09-08T04:53:24.575Z,99928.48
2017-09-08T04:54:57.484Z,99927.34
2017-09-08T04:56:38.500Z,99933.48
2017-09-08T04:59:26.311Z,99918.61
2017-09-08T05:02:50.462Z,99919.61
2017-09-08T05:04:02.626Z,99917.61
2017-09-08T05:05:32.810Z,99922.42
2017-09-08T05:06:50.134Z,99929.07
2017-09-08T05:08:05.507Z,99919.83
2017-09-08T05:09:21.801Z,99931.80
2017-09-08T05:10:35.632Z,99930.52
2017-09-08T05:11:50.421Z,99930.91
2017-09-08T05:13:00.412Z,99935.77
2017-09-08T05:14:11.634Z,99935.55
2017-09-08T05:15:22.624Z,99933.00
2017-09-08T05:17:00.458Z,99931.42
2017-09-08T05:18:12.635Z,99931.38
2017-09-08T05:19:22.069Z,99929.41
2017-09-08T05:20:32.636Z,99935.76
2017-09-08T05:21:44.613Z,99929.78
2017-09-08T05:22:54.380Z,99928.59
2017-09-08T05:24:31.450Z,99924.41
2017-09-08T05:25:43.979Z,99923.73
2017-09-08T05:27:17.434Z,99916.00
2017-09-08T05:28:30.514Z,99919.47
2017-09-08T05:30:05.259Z,99918.44
2017-09-08T05:35:02.208Z,99916.31
2017-09-08T05:36:25.644Z,99916.25
2017-09-08T05:37:46.534Z,99911.64
2017-09-08T05:39:02.562Z,99912.92
2017-09-08T05:40:13.659Z,99914.75
2017-09-08T05:41:29.408Z,99909.75
2017-09-08T05:42:38.110Z,99907.15
2017-09-08T05:45:23.470Z,99908.70
2017-09-08T05:47:10.661Z,99901.00
2017-09-08T05:48:41.371Z,99898.05
2017-09-08T05:53:56.708Z,99896.55
2017-09-08T05:55:19.977Z,99898.62
2017-09-08T05:56:28.282Z,99900.25
2017-09-08T05:59:52.029Z,99907.34
2017-09-08T06:02:32.177Z,99912.63
2017-09-08T06:05:40.323Z,99909.14
2017-09-08T06:07:13.086Z,99912.55
2017-09-08T06:08:29.599Z,99910.28
2017-09-08T06:09:39.621Z,99908.31
2017-09-08T06:10:48.244Z,99911.80
2017-09-08T06:12:08.547Z,99911.16
2017-09-08T06:13:26.590Z,99915.39
2017-09-08T06:14:54.331Z,99911.08
2017-09-08T06:16:06.228Z,99907.59
2017-09-08T06:17:18.458Z,99899.21
2017-09-08T06:18:30.337Z,99909.64
2017-09-08T06:19:41.563Z,99896.97
2017-09-08T06:20:53.503Z,99900.20
2017-09-08T06:22:04.301Z,99898.11
2017-09-08T06:23:13.326Z,99893.80
2017-09-08T06:26:38.278Z,99883.22
2017-09-08T06:27:49.561Z,99885.96
2017-09-08T06:29:01.203Z,99881.02
2017-09-08T06:30:11.286Z,99882.47
2017-09-08T06:31:21.252Z,99880.25
2017-09-08T06:32:32.582Z,99876.25
2017-09-08T06:33:43.457Z,99869.28
2017-09-08T06:34:55.488Z,99870.16
2017-09-08T06:36:06.410Z,99872.34
2017-09-08T06:37:18.270Z,99871.59
2017-09-08T06:38:29.120Z,99860.62
2017-09-08T06:39:40.334Z,99862.67
2017-09-08T06:40:50.479Z,99863.67
2017-09-08T06:42:02.347Z,99861.73
2017-09-08T06:43:13.085Z,99857.28
2017-09-08T06:44:28.985Z,99865.17
2017-09-08T06:45:44.248Z,99857.80
2017-09-08T06:46:54.328Z,99857.05
2017-09-08T06:48:04.170Z,99859.50
2017-09-08T06:49:14.203Z,99856.68
2017-09-08T06:50:22.758Z,99859.48
2017-09-08T06:51:31.330Z,99854.48
2017-09-08T06:52:42.339Z,99860.48
2017-09-08T06:53:52.223Z,99858.06
2017-09-08T06:55:03.246Z,99858.64
2017-09-08T06:56:13.160Z,99856.55
2017-09-08T06:57:26.255Z,99851.60
2017-09-08T06:58:36.189Z,99857.52
2017-09-08T07:01:02.146Z,99859.41
2017-09-08T07:02:12.169Z,99857.90
2017-09-08T07:03:21.201Z,99848.92
2017-09-08T07:04:31.125Z,99841.75
2017-09-08T07:06:55.117Z,99843.73
2017-09-08T07:08:06.296Z,99840.37
2017-09-08T07:09:17.389Z,99839.52
2017-09-08T07:10:27.133Z,99835.98
2017-09-08T07:11:38.680Z,99842.65
2017-09-08T07:14:04.291Z,99834.13
2017-09-08T07:15:17.164Z,99835.75
2017-09-08T07:16:29.278Z,99837.88
2017-09-08T07:17:40.199Z,99836.64
2017-09-08T07:18:51.212Z,99837.55
2017-09-08T07:20:04.389Z,99843.45
2017-09-08T07:21:35.242Z,99843.83
2017-09-08T07:22:46.191Z,99836.03
2017-09-08T07:24:00.243Z,99837.34
2017-09-08T07:25:11.177Z,99839.30
2017-09-08T07:26:30.120Z,99840.05
2017-09-08T07:27:42.245Z,99834.98
2017-09-08T07:28:58.278Z,99841.66
2017-09-08T07:30:20.247Z,99845.77
2017-09-08T07:31:30.274Z,99838.30
2017-09-08T07:32:40.437Z,99836.36
2017-09-08T07:33:51.292Z,99835.22
2017-09-08T07:35:01.210Z,99828.88
2017-09-08T07:36:13.195Z,99823.91
2017-09-08T07:37:24.081Z,99823.91
2017-09-08T07:38:35.151Z,99827.31
2017-09-08T07:39:45.075Z,99825.80
2017-09-08T07:40:56.144Z,99826.03
2017-09-08T07:42:06.975Z,99823.06
2017-09-08T07:43:16.014Z,99828.13
2017-09-08T07:44:26.242Z,99822.88
2017-09-08T07:45:38.182Z,99818.56
2017-09-08T07:46:55.954Z,99824.95
2017-09-08T07:48:12.281Z,99821.27
2017-09-08T07:49:25.370Z,99823.02
2017-09-08T07:50:37.160Z,99820.23
2017-09-08T07:51:52.147Z,99820.36
2017-09-08T07:53:02.017Z,99824.71
2017-09-08T07:54:11.233Z,99831.35
2017-09-08T07:55:21.284Z,99823.55
2017-09-08T07:56:32.000Z,99822.27
2017-09-08T07:57:41.998Z,99828.02
2017-09-08T07:58:55.012Z,99827.56
2017-09-08T08:00:06.033Z,99828.69
2017-09-08T08:01:17.017Z,99827.23
2017-09-08T08:02:29.170Z,99825.19
2017-09-08T08:03:41.183Z,99823.63
2017-09-08T08:04:51.731Z,99828.60
2017-09-08T08:06:02.075Z,99821.55
2017-09-08T08:07:12.959Z,99824.92
2017-09-08T08:08:23.072Z,99826.24
2017-09-08T08:09:37.271Z,99830.77
2017-09-08T08:10:47.957Z,99824.77
2017-09-08T08:11:59.065Z,99831.30
2017-09-08T08:13:09.125Z,99832.63
2017-09-08T08:14:19.925Z,99832.58
2017-09-08T08:15:31.123Z,99830.63
2017-09-08T08:16:43.137Z,99823.63
2017-09-08T08:17:54.225Z,99826.41
2017-09-08T08:19:04.909Z,99818.99
2017-09-08T08:20:15.589Z,99817.70
2017-09-08T08:21:26.207Z,99820.30
2017-09-08T08:22:37.087Z,99812.72
2017-09-08T08:23:48.111Z,99811.66
2017-09-08T08:24:59.250Z,99813.09
2017-09-08T08:26:10.239Z,99810.63
2017-09-08T08:27:21.981Z,99807.06
2017-09-08T08:28:37.190Z,99806.00
2017-09-08T08:29:52.152Z,99808.75
2017-09-08T08:31:02.001Z,99809.92
2017-09-08T08:32:11.993Z,99797.14
2017-09-08T08:33:22.953Z,99799.48
2017-09-08T08:34:33.104Z,99797.73
2017-09-08T08:35:43.629Z,99798.95
2017-09-08T08:36:52.890Z,99798.04
2017-09-08T08:38:00.891Z,99799.79
2017-09-08T08:39:12.182Z,99802.13
2017-09-08T08:40:21.976Z,99795.50
2017-09-08T08:41:32.987Z,99803.09
2017-09-08T08:42:43.498Z,99800.69
2017-09-08T08:43:53.909Z,99798.88
2017-09-08T08:45:05.061Z,99797.30
2017-09-08T08:46:15.297Z,99797.02
2017-09-08T08:47:28.043Z,99799.84
2017-09-08T08:48:37.103Z,99794.34
2017-09-08T08:49:54.078Z,99794.34
2017-09-08T08:51:05.263Z,99785.30
2017-09-08T08:52:17.229Z,99784.51
2017-09-08T08:53:27.036Z,99784.06
2017-09-08T08:54:38.505Z,99784.16
2017-09-08T08:55:48.061Z,99780.63
2017-09-08T08:56:57.930Z,99787.33
2017-09-08T08:58:07.873Z,99780.92
2017-09-08T08:59:19.078Z,99776.48
2017-09-08T09:01:47.253Z,99778.03
2017-09-08T09:02:59.039Z,99778.94
2017-09-08T09:04:11.135Z,99779.05
2017-09-08T09:05:21.011Z,99781.80
2017-09-08T09:06:31.011Z,99786.39
2017-09-08T09:07:41.962Z,99782.43
2017-09-08T09:08:53.961Z,99783.53
2017-09-08T09:10:03.941Z,99773.02
2017-09-08T09:11:16.118Z,99776.52
2017-09-08T09:12:25.957Z,99777.98
2017-09-08T09:13:35.876Z,99772.22
2017-09-08T09:14:45.826Z,99766.84
2017-09-08T09:15:56.932Z,99759.02
2017-09-08T09:17:06.865Z,99760.11
2017-09-08T09:18:17.859Z,99757.14
2017-09-08T09:20:36.862Z,99752.78
2017-09-08T09:21:45.774Z,99747.09
2017-09-08T09:22:56.215Z,99746.09
2017-09-08T09:24:06.880Z,99749.39
2017-09-08T09:25:17.816Z,99746.92
2017-09-08T09:26:27.913Z,99744.86
2017-09-08T09:27:37.935Z,99742.03
2017-09-08T09:28:51.054Z,99743.21
2017-09-08T09:30:00.844Z,99740.93
2017-09-08T09:31:17.874Z,99747.45
2017-09-08T09:32:27.840Z,99746.78
2017-09-08T09:33:37.768Z,99742.73
2017-09-08T09:34:47.906Z,99741.45
2017-09-08T09:35:57.832Z,99737.73
2017-09-08T09:37:08.725Z,99738.81
2017-09-08T09:38:18.841Z,99741.25
2017-09-08T09:39:30.047Z,99742.52
2017-09-08T09:40:40.767Z,99740.30
2017-09-08T09:41:52.937Z,99738.64
2017-09-08T09:43:02.900Z,99732.97
2017-09-08T09:44:14.079Z,99734.13
2017-09-08T09:45:24.814Z,99733.98
2017-09-08T09:46:33.828Z,99733.12
2017-09-08T09:47:43.875Z,99731.84
2017-09-08T09:48:54.890Z,99733.84
2017-09-08T09:50:04.767Z,99725.77
2017-09-08T09:51:15.798Z,99722.28
2017-09-08T09:52:25.713Z,99724.53
2017-09-08T09:53:35.872Z,99723.77
2017-09-08T09:54:48.075Z,99724.83
2017-09-08T09:55:57.769Z,99721.86
2017-09-08T09:57:09.888Z,99720.09
2017-09-08T09:58:19.816Z,99729.56
2017-09-08T09:59:28.731Z,99728.13
2017-09-08T10:00:37.875Z,99722.41
2017-09-08T10:01:47.829Z,99721.75
2017-09-08T10:02:58.805Z,99722.33
2017-09-08T10:04:08.764Z,99723.39
2017-09-08T10:05:19.866Z,99721.59
2017-09-08T10:06:31.733Z,99721.11
2017-09-08T10:07:41.526Z,99718.50
2017-09-08T10:08:50.834Z,99715.73
2017-09-08T10:10:02.748Z,99718.24
2017-09-08T10:11:14.881Z,99722.07
2017-09-08T10:12:31.827Z,99717.61
2017-09-08T10:13:41.880Z,99716.41
2017-09-08T10:14:51.849Z,99719.09
2017-09-08T10:16:01.740Z,99711.63
2017-09-08T10:17:13.104Z,99716.25
2017-09-08T10:18:22.830Z,99711.45
2017-09-08T10:19:33.737Z,99716.02
2017-09-08T10:20:42.699Z,99709.22
2017-09-08T10:21:52.689Z,99713.72
2017-09-08T10:23:02.843Z,99707.55
2017-09-08T10:24:12.953Z,99715.05
2017-09-08T10:25:23.659Z,99705.80
2017-09-08T10:26:33.718Z,99710.21
2017-09-08T10:27:45.583Z,99716.73
2017-09-08T10:28:56.665Z,99711.58
2017-09-08T10:30:07.725Z,99702.30
2017-09-08T10:31:24.151Z,99710.84
2017-09-08T10:36:29.669Z,99707.46
2017-09-08T10:38:00.989Z,99703.30
2017-09-08T10:39:11.671Z,99702.91
2017-09-08T10:40:45.644Z,99691.34
2017-09-08T10:42:08.914Z,99702.69
2017-09-08T10:43:31.959Z,99699.03
2017-09-08T10:46:26.760Z,99699.96
2017-09-08T10:47:35.879Z,99693.97
2017-09-08T10:48:46.574Z,99696.67
2017-09-08T10:49:56.725Z,99700.95
2017-09-08T10:51:06.890Z,99689.83
2017-09-08T10:52:15.579Z,99698.53
2017-09-08T10:53:23.831Z,99692.23
2017-09-08T10:55:03.644Z,99687.75
2017-09-08T10:56:34.559Z,99684.50
2017-09-08T10:58:08.460Z,99686.26
2017-09-08T11:02:37.003Z,99684.26
2017-09-08T11:04:27.142Z,99687.47
2017-09-08T11:05:34.966Z,99679.97
2017-09-08T11:06:44.561Z,99685.80
2017-09-08T11:08:04.430Z,99680.24
2017-09-08T11:10:55.616Z,99679.14
2017-09-08T11:12:04.742Z,99677.23
2017-09-08T11:13:14.922Z,99680.39
2017-09-08T11:14:22.917Z,99677.16
2017-09-08T11:15:31.146Z,99674.80
2017-09-08T11:16:40.253Z,99674.84
2017-09-08T11:17:49.635Z,99674.55
2017-09-08T11:21:12.755Z,99677.72
2017-09-08T11:22:44.625Z,99681.69
2017-09-08T11:23:59.795Z,99679.14
2017-09-08T11:25:22.870Z,99671.22
2017-09-08T11:26:53.534Z,99673.31
2017-09-08T11:28:15.940Z,99667.21
2017-09-08T11:29:32.441Z,99676.61
2017-09-08T11:30:46.711Z,99679.02
2017-09-08T11:32:09.448Z,99676.20
2017-09-08T11:33:37.858Z,99682.15
2017-09-08T11:35:10.766Z,99677.56
2017-09-08T11:36:32.058Z,99674.71
2017-09-08T11:37:44.727Z,99674.91
2017-09-08T11:38:54.573Z,99678.97
2017-09-08T11:40:04.621Z,99677.72
2017-09-08T11:41:14.482Z,99675.61
2017-09-08T11:42:25.647Z,99678.67
2017-09-08T11:43:38.756Z,99673.64
2017-09-08T11:45:00.865Z,99674.27
2017-09-08T11:46:11.548Z,99672.94
2017-09-08T11:47:21.597Z,99668.94
2017-09-08T11:48:32.551Z,99666.13
2017-09-08T11:49:42.108Z,99677.41
2017-09-08T11:50:55.544Z,99665.69
2017-09-08T11:52:06.721Z,99663.61
2017-09-08T11:53:17.839Z,99662.53
2017-09-08T11:54:28.645Z,99669.32
2017-09-08T11:55:38.631Z,99668.23
2017-09-08T11:56:52.883Z,99668.38
2017-09-08T11:58:04.462Z,99669.28
2017-09-08T11:59:16.513Z,99661.50
2017-09-08T12:00:27.768Z,99662.39
2017-09-08T12:01:41.707Z,99668.07
2017-09-08T12:02:53.654Z,99656.50
2017-09-08T12:04:09.773Z,99666.64
2017-09-08T12:05:30.439Z,99655.92
2017-09-08T12:06:46.770Z,99662.38
2017-09-08T12:07:56.493Z,99673.23
2017-09-08T12:09:05.474Z,99665.41
2017-09-08T12:10:14.488Z,99668.16
2017-09-08T12:11:25.468Z,99657.39
2017-09-08T12:12:35.367Z,99656.76
2017-09-08T12:13:45.405Z,99662.91
2017-09-08T12:14:56.464Z,99658.70
2017-09-08T12:16:12.662Z,99652.66
2017-09-08T12:17:22.748Z,99654.79
2017-09-08T12:19:56.470Z,99640.88
2017-09-08T12:21:07.590Z,99646.03
2017-09-08T12:22:16.484Z,99642.05
2017-09-08T12:23:25.486Z,99640.16
2017-09-08T12:24:36.527Z,99640.52
2017-09-08T12:25:46.497Z,99634.44
2017-09-08T12:26:56.329Z,99639.59
2017-09-08T12:28:06.458Z,99639.05
2017-09-08T12:29:16.476Z,99632.14
2017-09-08T12:30:26.347Z,99631.00
2017-09-08T12:31:35.461Z,99636.81
2017-09-08T12:32:45.538Z,99633.95
2017-09-08T12:33:56.503Z,99636.91
2017-09-08T12:35:07.418Z,99635.70
2017-09-08T12:36:16.382Z,99632.81
2017-09-08T12:37:26.366Z,99632.64
2017-09-08T12:38:36.416Z,99632.67
2017-09-08T12:39:53.692Z,99631.58
2017-09-08T12:41:04.464Z,99631.22
2017-09-08T12:42:14.063Z,99636.06
2017-09-08T12:43:22.279Z,99623.59
2017-09-08T12:44:33.531Z,99630.38
2017-09-08T12:45:45.647Z,99630.73
2017-09-08T12:46:56.364Z,99628.49
2017-09-08T12:48:04.340Z,99630.32
2017-09-08T12:49:13.342Z,99626.95
2017-09-08T12:50:22.364Z,99627.02
2017-09-08T12:51:32.607Z,99620.17
2017-09-08T12:52:42.472Z,99616.87
2017-09-08T12:53:52.982Z,99612.86
2017-09-08T12:55:02.398Z,99623.45
2017-09-08T12:56:10.342Z,99620.85
2017-09-08T12:57:22.455Z,99614.70
2017-09-08T12:58:33.321Z,99612.92
2017-09-08T12:59:43.322Z,99608.12
2017-09-08T13:00:57.530Z,99610.48
2017-09-08T13:02:12.561Z,99606.71
2017-09-08T13:03:21.446Z,99611.69
2017-09-08T13:04:30.308Z,99609.80
2017-09-08T13:05:42.252Z,99610.06
2017-09-08T13:06:52.351Z,99604.47
2017-09-08T13:08:01.456Z,99608.30
2017-09-08T13:09:10.687Z,99606.63
2017-09-08T13:10:19.565Z,99601.05
2017-09-08T13:11:28.275Z,99596.86
2017-09-08T13:12:39.502Z,99602.46
2017-09-08T13:13:48.289Z,99601.19
2017-09-08T13:14:58.497Z,99600.91
2017-09-08T13:16:08.332Z,99597.61
2017-09-08T13:17:20.517Z,99591.52
2017-09-08T13:18:30.330Z,99593.13
2017-09-08T13:19:39.374Z,99591.59
2017-09-08T13:20:51.614Z,99587.11
2017-09-08T13:22:04.552Z,99586.08
2017-09-08T13:23:19.378Z,99592.09
2017-09-08T13:24:29.314Z,99585.11
2017-09-08T13:25:41.649Z,99576.61
2017-09-08T13:26:52.450Z,99584.27
2017-09-08T13:28:02.439Z,99578.36
2017-09-08T13:29:12.554Z,99581.09
2017-09-08T13:30:24.604Z,99580.69
2017-09-08T13:31:34.323Z,99575.16
2017-09-08T13:32:44.334Z,99573.12
2017-09-08T13:33:54.360Z,99574.45
2017-09-08T13:35:06.498Z,99573.69
2017-09-08T13:36:16.433Z,99567.39
2017-09-08T13:37:26.259Z,99565.84
2017-09-08T13:38:38.470Z,99566.05
2017-09-08T13:39:48.317Z,99569.47
2017-09-08T13:40:58.251Z,99567.39
2017-09-08T13:42:09.286Z,99562.48
2017-09-08T13:43:26.449Z,99564.30
2017-09-08T13:44:37.222Z,99567.88
2017-09-08T13:45:46.374Z,99563.76
2017-09-08T13:46:55.232Z,99562.77
2017-09-08T13:48:05.364Z,99560.94
2017-09-08T13:49:15.348Z,99564.73
2017-09-08T13:50:25.201Z,99553.31
2017-09-08T13:51:35.183Z,99558.64
2017-09-08T13:52:45.449Z,99557.11
2017-09-08T13:53:55.404Z,99560.45
2017-09-08T13:55:06.234Z,99562.22
2017-09-08T13:56:16.291Z,99559.69
2017-09-08T13:57:26.720Z,99555.77
2017-09-08T13:58:37.518Z,99554.86
2017-09-08T13:59:47.538Z,99556.19
2017-09-08T14:00:58.352Z,99554.38
2017-09-08T14:02:09.252Z,99560.89
2017-09-08T14:03:20.125Z,99553.48
2017-09-08T14:04:36.238Z,99555.37
2017-09-08T14:05:45.250Z,99558.07
2017-09-08T14:06:54.010Z,99558.30
2017-09-08T14:08:03.373Z,99563.11
2017-09-08T14:09:13.259Z,99556.54
2017-09-08T14:10:24.033Z,99551.30
2017-09-08T14:11:34.238Z,99557.27
2017-09-08T14:12:43.239Z,99551.16
2017-09-08T14:13:55.416Z,99558.07
2017-09-08T14:15:05.172Z,99549.55
2017-09-08T14:16:16.239Z,99555.41
2017-09-08T14:17:25.154Z,99548.28
2017-09-08T14:18:35.298Z,99544.52
2017-09-08T14:19:45.224Z,99549.00
2017-09-08T14:20:54.346Z,99541.45
2017-09-08T14:22:04.111Z,99554.09
2017-09-08T14:23:15.289Z,99553.76
2017-09-08T14:24:26.529Z,99545.35
2017-09-08T14:25:38.276Z,99541.06
2017-09-08T14:26:48.345Z,99541.56
2017-09-08T14:27:59.312Z,99543.37
2017-09-08T14:29:10.143Z,99543.11
2017-09-08T14:30:20.226Z,99547.72
2017-09-08T14:31:30.171Z,99541.63
2017-09-08T14:32:39.327Z,99545.91
2017-09-08T14:33:49.300Z,99546.26
2017-09-08T14:34:59.168Z,99546.46
2017-09-08T14:36:10.160Z,99545.90
2017-09-08T14:37:20.091Z,99546.48